sensor_id;sensor_type;location;lat;lon;timestamp;P1;durP1;ratioP1;P2;durP2;ratioP2
15258;SDS011;34462;51.368;12.364;2022-11-20T00:01:32;21.10;;;14.97;;
15258;SDS011;34462;51.368;12.364;2022-11-20T00:04:01;19.77;;;15.20;;
15258;SDS011;34462;51.368;12.364;2022-11-20T00:06:29;21.53;;;15.10;;
15258;SDS011;34462;51.368;12.364;2022-11-20T00:08:58;19.57;;;14.13;;
15258;SDS011;34462;51.368;12.364;2022-11-20T00:11:28;20.37;;;14.10;;
15258;SDS011;34462;51.368;12.364;2022-11-20T00:14:00;20.07;;;13.47;;
15258;SDS011;34462;51.368;12.364;2022-11-20T00:16:31;20.27;;;14.90;;
15258;SDS011;34462;51.368;12.364;2022-11-20T00:18:59;22.40;;;15.37;;
15258;SDS011;34462;51.368;12.364;2022-11-20T00:21:28;21.63;;;14.97;;
15258;SDS011;34462;51.368;12.364;2022-11-20T00:23:57;21.03;;;14.67;;
15258;SDS011;34462;51.368;12.364;2022-11-20T00:26:26;21.97;;;14.53;;
15258;SDS011;34462;51.368;12.364;2022-11-20T00:28:56;20.50;;;14.57;;
15258;SDS011;34462;51.368;12.364;2022-11-20T00:31:28;22.73;;;14.50;;
15258;SDS011;34462;51.368;12.364;2022-11-20T00:33:59;22.27;;;15.73;;
15258;SDS011;34462;51.368;12.364;2022-11-20T00:36:27;22.33;;;15.73;;
15258;SDS011;34462;51.368;12.364;2022-11-20T00:39:00;23.47;;;16.67;;
15258;SDS011;34462;51.368;12.364;2022-11-20T00:41:29;22.60;;;16.17;;
15258;SDS011;34462;51.368;12.364;2022-11-20T00:43:57;22.90;;;17.37;;
15258;SDS011;34462;51.368;12.364;2022-11-20T00:46:26;21.43;;;15.10;;
15258;SDS011;34462;51.368;12.364;2022-11-20T00:48:57;21.80;;;15.00;;
15258;SDS011;34462;51.368;12.364;2022-11-20T00:51:26;22.93;;;15.27;;
15258;SDS011;34462;51.368;12.364;2022-11-20T00:53:55;21.57;;;14.20;;
15258;SDS011;34462;51.368;12.364;2022-11-20T00:56:25;21.47;;;13.93;;
15258;SDS011;34462;51.368;12.364;2022-11-20T00:58:54;21.67;;;13.83;;
15258;SDS011;34462;51.368;12.364;2022-11-20T01:01:23;21.63;;;14.47;;
15258;SDS011;34462;51.368;12.364;2022-11-20T01:03:57;21.37;;;15.43;;
15258;SDS011;34462;51.368;12.364;2022-11-20T01:06:27;22.13;;;14.60;;
15258;SDS011;34462;51.368;12.364;2022-11-20T01:08:59;23.80;;;14.97;;
15258;SDS011;34462;51.368;12.364;2022-11-20T01:11:32;24.70;;;16.23;;
15258;SDS011;34462;51.368;12.364;2022-11-20T01:14:02;22.50;;;16.63;;
15258;SDS011;34462;51.368;12.364;2022-11-20T01:16:34;24.70;;;16.97;;
15258;SDS011;34462;51.368;12.364;2022-11-20T01:19:07;22.87;;;16.90;;
15258;SDS011;34462;51.368;12.364;2022-11-20T01:21:43;22.20;;;16.30;;
15258;SDS011;34462;51.368;12.364;2022-11-20T01:24:15;21.20;;;15.33;;
15258;SDS011;34462;51.368;12.364;2022-11-20T01:26:47;21.87;;;15.97;;
15258;SDS011;34462;51.368;12.364;2022-11-20T01:29:18;22.53;;;14.50;;
15258;SDS011;34462;51.368;12.364;2022-11-20T01:31:49;22.40;;;16.00;;
15258;SDS011;34462;51.368;12.364;2022-11-20T01:34:20;20.97;;;15.40;;
15258;SDS011;34462;51.368;12.364;2022-11-20T01:36:49;21.63;;;15.97;;
15258;SDS011;34462;51.368;12.364;2022-11-20T01:39:20;23.07;;;15.93;;
15258;SDS011;34462;51.368;12.364;2022-11-20T01:41:51;19.57;;;13.90;;
15258;SDS011;34462;51.368;12.364;2022-11-20T01:44:48;21.47;;;15.03;;
15258;SDS011;34462;51.368;12.364;2022-11-20T01:47:24;22.87;;;14.97;;
15258;SDS011;34462;51.368;12.364;2022-11-20T01:50:03;21.83;;;15.03;;
15258;SDS011;34462;51.368;12.364;2022-11-20T01:52:39;20.80;;;14.17;;
15258;SDS011;34462;51.368;12.364;2022-11-20T01:55:17;22.80;;;13.73;;
15258;SDS011;34462;51.368;12.364;2022-11-20T01:57:49;21.50;;;13.53;;
15258;SDS011;34462;51.368;12.364;2022-11-20T02:00:19;21.13;;;14.03;;
15258;SDS011;34462;51.368;12.364;2022-11-20T02:02:50;21.03;;;13.50;;
15258;SDS011;34462;51.368;12.364;2022-11-20T02:05:26;20.70;;;13.80;;
15258;SDS011;34462;51.368;12.364;2022-11-20T02:08:02;21.10;;;13.50;;
15258;SDS011;34462;51.368;12.364;2022-11-20T02:10:33;19.67;;;13.80;;
15258;SDS011;34462;51.368;12.364;2022-11-20T02:13:02;21.23;;;14.30;;
15258;SDS011;34462;51.368;12.364;2022-11-20T02:15:48;20.77;;;13.40;;
15258;SDS011;34462;51.368;12.364;2022-11-20T02:18:18;19.47;;;13.03;;
15258;SDS011;34462;51.368;12.364;2022-11-20T02:20:50;20.00;;;12.73;;
15258;SDS011;34462;51.368;12.364;2022-11-20T02:23:29;20.90;;;14.07;;
15258;SDS011;34462;51.368;12.364;2022-11-20T02:26:05;21.43;;;13.90;;
15258;SDS011;34462;51.368;12.364;2022-11-20T02:28:39;20.23;;;13.67;;
15258;SDS011;34462;51.368;12.364;2022-11-20T02:31:07;22.17;;;13.93;;
15258;SDS011;34462;51.368;12.364;2022-11-20T02:33:35;20.77;;;13.07;;
15258;SDS011;34462;51.368;12.364;2022-11-20T02:36:04;21.70;;;13.80;;
15258;SDS011;34462;51.368;12.364;2022-11-20T02:38:35;21.80;;;13.87;;
15258;SDS011;34462;51.368;12.364;2022-11-20T02:41:05;17.70;;;12.60;;
15258;SDS011;34462;51.368;12.364;2022-11-20T02:43:33;21.63;;;14.00;;
15258;SDS011;34462;51.368;12.364;2022-11-20T02:46:01;24.30;;;14.07;;
15258;SDS011;34462;51.368;12.364;2022-11-20T02:48:29;23.57;;;14.40;;
15258;SDS011;34462;51.368;12.364;2022-11-20T02:50:59;24.67;;;14.50;;
15258;SDS011;34462;51.368;12.364;2022-11-20T02:53:27;22.20;;;14.60;;
15258;SDS011;34462;51.368;12.364;2022-11-20T02:55:56;21.93;;;13.70;;
15258;SDS011;34462;51.368;12.364;2022-11-20T02:58:25;20.37;;;13.63;;
15258;SDS011;34462;51.368;12.364;2022-11-20T03:00:53;23.33;;;14.30;;
15258;SDS011;34462;51.368;12.364;2022-11-20T03:03:21;21.00;;;13.90;;
15258;SDS011;34462;51.368;12.364;2022-11-20T03:05:50;22.70;;;14.73;;
15258;SDS011;34462;51.368;12.364;2022-11-20T03:08:18;22.33;;;14.37;;
15258;SDS011;34462;51.368;12.364;2022-11-20T03:10:46;21.37;;;14.83;;
15258;SDS011;34462;51.368;12.364;2022-11-20T03:13:14;21.27;;;13.70;;
15258;SDS011;34462;51.368;12.364;2022-11-20T03:15:43;26.10;;;15.10;;
15258;SDS011;34462;51.368;12.364;2022-11-20T03:18:12;23.57;;;15.17;;
15258;SDS011;34462;51.368;12.364;2022-11-20T03:20:40;25.73;;;14.77;;
15258;SDS011;34462;51.368;12.364;2022-11-20T03:23:08;25.37;;;15.67;;
15258;SDS011;34462;51.368;12.364;2022-11-20T03:25:37;24.50;;;15.20;;
15258;SDS011;34462;51.368;12.364;2022-11-20T03:28:05;22.40;;;14.43;;
15258;SDS011;34462;51.368;12.364;2022-11-20T03:30:33;23.97;;;15.70;;
15258;SDS011;34462;51.368;12.364;2022-11-20T03:33:03;29.03;;;16.23;;
15258;SDS011;34462;51.368;12.364;2022-11-20T03:35:31;27.13;;;15.40;;
15258;SDS011;34462;51.368;12.364;2022-11-20T03:37:59;29.57;;;15.50;;
15258;SDS011;34462;51.368;12.364;2022-11-20T03:40:27;24.80;;;14.50;;
15258;SDS011;34462;51.368;12.364;2022-11-20T03:42:56;21.50;;;15.20;;
15258;SDS011;34462;51.368;12.364;2022-11-20T03:45:24;25.07;;;15.23;;
15258;SDS011;34462;51.368;12.364;2022-11-20T03:47:52;27.40;;;14.70;;
15258;SDS011;34462;51.368;12.364;2022-11-20T03:50:21;23.63;;;15.57;;
15258;SDS011;34462;51.368;12.364;2022-11-20T03:52:49;27.23;;;16.57;;
15258;SDS011;34462;51.368;12.364;2022-11-20T03:55:17;24.17;;;14.90;;
15258;SDS011;34462;51.368;12.364;2022-11-20T03:57:46;22.53;;;15.87;;
15258;SDS011;34462;51.368;12.364;2022-11-20T04:00:14;25.17;;;15.53;;
15258;SDS011;34462;51.368;12.364;2022-11-20T04:02:43;30.17;;;16.73;;
15258;SDS011;34462;51.368;12.364;2022-11-20T04:05:11;27.30;;;16.17;;
15258;SDS011;34462;51.368;12.364;2022-11-20T04:07:41;27.43;;;16.63;;
15258;SDS011;34462;51.368;12.364;2022-11-20T04:10:09;27.17;;;16.60;;
15258;SDS011;34462;51.368;12.364;2022-11-20T04:12:37;28.13;;;16.47;;
15258;SDS011;34462;51.368;12.364;2022-11-20T04:15:05;25.40;;;16.00;;
15258;SDS011;34462;51.368;12.364;2022-11-20T04:17:34;29.07;;;16.70;;
15258;SDS011;34462;51.368;12.364;2022-11-20T04:20:03;28.47;;;16.53;;
15258;SDS011;34462;51.368;12.364;2022-11-20T04:22:32;26.97;;;16.33;;
15258;SDS011;34462;51.368;12.364;2022-11-20T04:25:02;32.07;;;17.13;;
15258;SDS011;34462;51.368;12.364;2022-11-20T04:27:31;28.60;;;17.03;;
15258;SDS011;34462;51.368;12.364;2022-11-20T04:29:59;29.90;;;17.07;;
15258;SDS011;34462;51.368;12.364;2022-11-20T04:32:27;27.30;;;17.03;;
15258;SDS011;34462;51.368;12.364;2022-11-20T04:34:55;27.90;;;17.13;;
15258;SDS011;34462;51.368;12.364;2022-11-20T04:37:23;31.07;;;17.47;;
15258;SDS011;34462;51.368;12.364;2022-11-20T04:39:51;25.60;;;16.37;;
15258;SDS011;34462;51.368;12.364;2022-11-20T04:42:21;30.13;;;17.10;;
15258;SDS011;34462;51.368;12.364;2022-11-20T04:44:55;24.47;;;15.97;;
15258;SDS011;34462;51.368;12.364;2022-11-20T04:47:24;27.37;;;16.47;;
15258;SDS011;34462;51.368;12.364;2022-11-20T04:49:52;26.03;;;16.33;;
15258;SDS011;34462;51.368;12.364;2022-11-20T04:52:20;28.63;;;17.07;;
15258;SDS011;34462;51.368;12.364;2022-11-20T04:54:48;27.97;;;17.67;;
15258;SDS011;34462;51.368;12.364;2022-11-20T04:57:19;29.50;;;17.90;;
15258;SDS011;34462;51.368;12.364;2022-11-20T04:59:48;29.30;;;18.03;;
15258;SDS011;34462;51.368;12.364;2022-11-20T05:02:17;27.70;;;17.70;;
15258;SDS011;34462;51.368;12.364;2022-11-20T05:04:45;27.13;;;16.40;;
15258;SDS011;34462;51.368;12.364;2022-11-20T05:07:13;29.10;;;16.60;;
15258;SDS011;34462;51.368;12.364;2022-11-20T05:09:41;26.93;;;16.23;;
15258;SDS011;34462;51.368;12.364;2022-11-20T05:12:09;27.33;;;16.03;;
15258;SDS011;34462;51.368;12.364;2022-11-20T05:14:39;26.90;;;17.27;;
15258;SDS011;34462;51.368;12.364;2022-11-20T05:17:09;29.93;;;16.97;;
15258;SDS011;34462;51.368;12.364;2022-11-20T05:19:38;27.37;;;16.90;;
15258;SDS011;34462;51.368;12.364;2022-11-20T05:22:06;27.47;;;16.63;;
15258;SDS011;34462;51.368;12.364;2022-11-20T05:24:35;28.87;;;16.40;;
15258;SDS011;34462;51.368;12.364;2022-11-20T05:27:03;27.60;;;16.00;;
15258;SDS011;34462;51.368;12.364;2022-11-20T05:29:31;25.87;;;16.23;;
15258;SDS011;34462;51.368;12.364;2022-11-20T05:32:00;28.17;;;17.03;;
15258;SDS011;34462;51.368;12.364;2022-11-20T05:34:29;27.53;;;16.00;;
15258;SDS011;34462;51.368;12.364;2022-11-20T05:36:57;29.10;;;15.47;;
15258;SDS011;34462;51.368;12.364;2022-11-20T05:39:25;27.60;;;17.20;;
15258;SDS011;34462;51.368;12.364;2022-11-20T05:41:53;28.77;;;17.27;;
15258;SDS011;34462;51.368;12.364;2022-11-20T05:44:35;25.97;;;16.13;;
15258;SDS011;34462;51.368;12.364;2022-11-20T05:47:05;28.30;;;16.70;;
15258;SDS011;34462;51.368;12.364;2022-11-20T05:49:33;31.70;;;16.97;;
15258;SDS011;34462;51.368;12.364;2022-11-20T05:52:01;28.30;;;17.00;;
15258;SDS011;34462;51.368;12.364;2022-11-20T05:54:29;26.77;;;16.33;;
15258;SDS011;34462;51.368;12.364;2022-11-20T05:56:58;28.23;;;17.90;;
15258;SDS011;34462;51.368;12.364;2022-11-20T05:59:26;27.67;;;16.97;;
15258;SDS011;34462;51.368;12.364;2022-11-20T06:01:54;25.47;;;16.33;;
15258;SDS011;34462;51.368;12.364;2022-11-20T06:04:24;29.23;;;18.13;;
15258;SDS011;34462;51.368;12.364;2022-11-20T06:06:52;29.93;;;17.07;;
15258;SDS011;34462;51.368;12.364;2022-11-20T06:09:20;29.10;;;16.67;;
15258;SDS011;34462;51.368;12.364;2022-11-20T06:11:48;26.33;;;16.67;;
15258;SDS011;34462;51.368;12.364;2022-11-20T06:14:17;29.60;;;17.77;;
15258;SDS011;34462;51.368;12.364;2022-11-20T06:16:45;26.97;;;16.53;;
15258;SDS011;34462;51.368;12.364;2022-11-20T06:19:13;31.47;;;17.70;;
15258;SDS011;34462;51.368;12.364;2022-11-20T06:21:43;29.73;;;16.73;;
15258;SDS011;34462;51.368;12.364;2022-11-20T06:24:11;28.97;;;16.67;;
15258;SDS011;34462;51.368;12.364;2022-11-20T06:26:39;29.97;;;18.13;;
15258;SDS011;34462;51.368;12.364;2022-11-20T06:29:08;29.27;;;17.43;;
15258;SDS011;34462;51.368;12.364;2022-11-20T06:31:36;31.10;;;17.57;;
15258;SDS011;34462;51.368;12.364;2022-11-20T06:34:05;33.50;;;17.80;;
15258;SDS011;34462;51.368;12.364;2022-11-20T06:36:33;32.13;;;17.53;;
15258;SDS011;34462;51.368;12.364;2022-11-20T06:39:03;28.00;;;16.73;;
15258;SDS011;34462;51.368;12.364;2022-11-20T06:41:31;29.90;;;17.67;;
15258;SDS011;34462;51.368;12.364;2022-11-20T06:43:59;31.50;;;17.53;;
15258;SDS011;34462;51.368;12.364;2022-11-20T06:46:27;30.90;;;17.70;;
15258;SDS011;34462;51.368;12.364;2022-11-20T06:48:55;31.53;;;16.90;;
15258;SDS011;34462;51.368;12.364;2022-11-20T06:51:24;31.73;;;18.13;;
15258;SDS011;34462;51.368;12.364;2022-11-20T06:53:52;27.03;;;16.57;;
15258;SDS011;34462;51.368;12.364;2022-11-20T06:56:22;27.20;;;17.27;;
15258;SDS011;34462;51.368;12.364;2022-11-20T06:58:50;26.50;;;16.00;;
15258;SDS011;34462;51.368;12.364;2022-11-20T07:01:18;27.27;;;16.20;;
15258;SDS011;34462;51.368;12.364;2022-11-20T07:03:48;29.60;;;17.57;;
15258;SDS011;34462;51.368;12.364;2022-11-20T07:06:19;27.20;;;16.90;;
15258;SDS011;34462;51.368;12.364;2022-11-20T07:08:49;30.10;;;17.27;;
15258;SDS011;34462;51.368;12.364;2022-11-20T07:11:18;28.30;;;16.60;;
15258;SDS011;34462;51.368;12.364;2022-11-20T07:13:48;29.67;;;16.83;;
15258;SDS011;34462;51.368;12.364;2022-11-20T07:16:17;27.50;;;17.10;;
15258;SDS011;34462;51.368;12.364;2022-11-20T07:18:45;31.93;;;17.23;;
15258;SDS011;34462;51.368;12.364;2022-11-20T07:21:16;28.80;;;17.27;;
15258;SDS011;34462;51.368;12.364;2022-11-20T07:23:44;26.23;;;17.00;;
15258;SDS011;34462;51.368;12.364;2022-11-20T07:26:13;29.90;;;16.70;;
15258;SDS011;34462;51.368;12.364;2022-11-20T07:28:43;27.97;;;17.13;;
15258;SDS011;34462;51.368;12.364;2022-11-20T07:31:13;30.07;;;17.00;;
15258;SDS011;34462;51.368;12.364;2022-11-20T07:33:44;26.60;;;17.30;;
15258;SDS011;34462;51.368;12.364;2022-11-20T07:36:13;28.13;;;17.70;;
15258;SDS011;34462;51.368;12.364;2022-11-20T07:38:41;30.53;;;18.70;;
15258;SDS011;34462;51.368;12.364;2022-11-20T07:41:09;28.83;;;16.83;;
15258;SDS011;34462;51.368;12.364;2022-11-20T07:43:37;30.77;;;18.40;;
15258;SDS011;34462;51.368;12.364;2022-11-20T07:46:07;30.67;;;17.30;;
15258;SDS011;34462;51.368;12.364;2022-11-20T07:48:36;28.73;;;17.63;;
15258;SDS011;34462;51.368;12.364;2022-11-20T07:51:04;28.63;;;17.10;;
15258;SDS011;34462;51.368;12.364;2022-11-20T07:53:33;28.57;;;17.67;;
15258;SDS011;34462;51.368;12.364;2022-11-20T07:56:01;28.03;;;16.40;;
15258;SDS011;34462;51.368;12.364;2022-11-20T07:58:30;29.97;;;18.33;;
15258;SDS011;34462;51.368;12.364;2022-11-20T08:01:04;27.67;;;17.83;;
15258;SDS011;34462;51.368;12.364;2022-11-20T08:03:33;25.47;;;16.27;;
15258;SDS011;34462;51.368;12.364;2022-11-20T08:06:05;27.70;;;16.90;;
15258;SDS011;34462;51.368;12.364;2022-11-20T08:08:34;27.37;;;16.33;;
15258;SDS011;34462;51.368;12.364;2022-11-20T08:11:08;24.27;;;15.27;;
15258;SDS011;34462;51.368;12.364;2022-11-20T08:13:54;26.30;;;15.30;;
15258;SDS011;34462;51.368;12.364;2022-11-20T08:16:41;25.47;;;16.47;;
15258;SDS011;34462;51.368;12.364;2022-11-20T08:19:10;25.30;;;15.27;;
15258;SDS011;34462;51.368;12.364;2022-11-20T08:21:41;26.57;;;15.70;;
15258;SDS011;34462;51.368;12.364;2022-11-20T08:24:10;27.17;;;16.30;;
15258;SDS011;34462;51.368;12.364;2022-11-20T08:26:39;25.07;;;15.87;;
15258;SDS011;34462;51.368;12.364;2022-11-20T08:29:08;25.43;;;16.20;;
15258;SDS011;34462;51.368;12.364;2022-11-20T08:31:36;27.83;;;16.57;;
15258;SDS011;34462;51.368;12.364;2022-11-20T08:34:04;22.77;;;15.13;;
15258;SDS011;34462;51.368;12.364;2022-11-20T08:36:35;25.43;;;16.00;;
15258;SDS011;34462;51.368;12.364;2022-11-20T08:39:05;25.03;;;16.20;;
15258;SDS011;34462;51.368;12.364;2022-11-20T08:41:33;26.43;;;16.33;;
15258;SDS011;34462;51.368;12.364;2022-11-20T08:44:03;24.17;;;15.20;;
15258;SDS011;34462;51.368;12.364;2022-11-20T08:46:34;23.90;;;14.73;;
15258;SDS011;34462;51.368;12.364;2022-11-20T08:49:04;21.73;;;14.17;;
15258;SDS011;34462;51.368;12.364;2022-11-20T08:51:35;23.67;;;14.97;;
15258;SDS011;34462;51.368;12.364;2022-11-20T08:54:06;22.67;;;14.30;;
15258;SDS011;34462;51.368;12.364;2022-11-20T08:56:34;23.33;;;14.23;;
15258;SDS011;34462;51.368;12.364;2022-11-20T08:59:03;22.63;;;13.73;;
15258;SDS011;34462;51.368;12.364;2022-11-20T09:01:51;22.60;;;14.77;;
15258;SDS011;34462;51.368;12.364;2022-11-20T09:04:19;22.30;;;14.57;;
15258;SDS011;34462;51.368;12.364;2022-11-20T09:06:48;20.93;;;14.23;;
15258;SDS011;34462;51.368;12.364;2022-11-20T09:09:18;21.67;;;14.03;;
15258;SDS011;34462;51.368;12.364;2022-11-20T09:11:47;24.17;;;15.40;;
15258;SDS011;34462;51.368;12.364;2022-11-20T09:14:16;21.50;;;13.83;;
15258;SDS011;34462;51.368;12.364;2022-11-20T09:16:44;20.40;;;13.77;;
15258;SDS011;34462;51.368;12.364;2022-11-20T09:19:12;23.03;;;14.33;;
15258;SDS011;34462;51.368;12.364;2022-11-20T09:22:01;20.90;;;13.53;;
15258;SDS011;34462;51.368;12.364;2022-11-20T09:24:30;21.87;;;14.80;;
15258;SDS011;34462;51.368;12.364;2022-11-20T09:27:00;20.63;;;13.40;;
15258;SDS011;34462;51.368;12.364;2022-11-20T09:29:30;21.50;;;14.50;;
15258;SDS011;34462;51.368;12.364;2022-11-20T09:31:58;20.63;;;13.73;;
15258;SDS011;34462;51.368;12.364;2022-11-20T09:34:27;21.87;;;13.97;;
15258;SDS011;34462;51.368;12.364;2022-11-20T09:36:55;19.30;;;13.47;;
15258;SDS011;34462;51.368;12.364;2022-11-20T09:39:28;23.60;;;14.07;;
15258;SDS011;34462;51.368;12.364;2022-11-20T09:42:02;20.87;;;12.77;;
15258;SDS011;34462;51.368;12.364;2022-11-20T09:44:55;23.47;;;13.90;;
15258;SDS011;34462;51.368;12.364;2022-11-20T09:47:43;20.23;;;13.30;;
15258;SDS011;34462;51.368;12.364;2022-11-20T09:50:31;20.47;;;13.40;;
15258;SDS011;34462;51.368;12.364;2022-11-20T09:53:12;18.87;;;13.23;;
15258;SDS011;34462;51.368;12.364;2022-11-20T09:55:49;20.17;;;13.10;;
15258;SDS011;34462;51.368;12.364;2022-11-20T09:58:23;19.90;;;13.57;;
15258;SDS011;34462;51.368;12.364;2022-11-20T10:01:00;18.77;;;13.13;;
15258;SDS011;34462;51.368;12.364;2022-11-20T10:03:39;20.70;;;13.87;;
15258;SDS011;34462;51.368;12.364;2022-11-20T10:06:21;23.33;;;14.40;;
15258;SDS011;34462;51.368;12.364;2022-11-20T10:09:00;20.97;;;14.50;;
15258;SDS011;34462;51.368;12.364;2022-11-20T10:11:44;24.97;;;15.13;;
15258;SDS011;34462;51.368;12.364;2022-11-20T10:14:28;21.90;;;15.03;;
15258;SDS011;34462;51.368;12.364;2022-11-20T10:17:12;21.93;;;14.60;;
15258;SDS011;34462;51.368;12.364;2022-11-20T10:19:54;24.73;;;15.47;;
15258;SDS011;34462;51.368;12.364;2022-11-20T10:22:50;27.03;;;16.50;;
15258;SDS011;34462;51.368;12.364;2022-11-20T10:25:38;24.57;;;16.07;;
15258;SDS011;34462;51.368;12.364;2022-11-20T10:28:21;26.77;;;17.40;;
15258;SDS011;34462;51.368;12.364;2022-11-20T10:31:08;25.10;;;16.47;;
15258;SDS011;34462;51.368;12.364;2022-11-20T10:33:52;24.43;;;15.93;;
15258;SDS011;34462;51.368;12.364;2022-11-20T10:36:38;20.40;;;13.07;;
15258;SDS011;34462;51.368;12.364;2022-11-20T10:39:15;22.30;;;14.10;;
15258;SDS011;34462;51.368;12.364;2022-11-20T10:41:52;21.80;;;13.97;;
15258;SDS011;34462;51.368;12.364;2022-11-20T10:44:21;20.03;;;13.30;;
15258;SDS011;34462;51.368;12.364;2022-11-20T10:47:32;20.43;;;14.03;;
15258;SDS011;34462;51.368;12.364;2022-11-20T10:50:01;21.50;;;14.30;;
15258;SDS011;34462;51.368;12.364;2022-11-20T10:52:39;22.80;;;14.80;;
15258;SDS011;34462;51.368;12.364;2022-11-20T10:55:23;21.47;;;13.70;;
15258;SDS011;34462;51.368;12.364;2022-11-20T10:58:08;20.47;;;14.10;;
15258;SDS011;34462;51.368;12.364;2022-11-20T11:00:44;21.20;;;13.60;;
15258;SDS011;34462;51.368;12.364;2022-11-20T11:03:23;19.30;;;13.63;;
15258;SDS011;34462;51.368;12.364;2022-11-20T11:05:58;19.43;;;13.63;;
15258;SDS011;34462;51.368;12.364;2022-11-20T11:08:37;19.00;;;12.87;;
15258;SDS011;34462;51.368;12.364;2022-11-20T11:11:10;16.87;;;11.77;;
15258;SDS011;34462;51.368;12.364;2022-11-20T11:13:48;16.23;;;11.67;;
15258;SDS011;34462;51.368;12.364;2022-11-20T11:16:21;15.80;;;11.37;;
15258;SDS011;34462;51.368;12.364;2022-11-20T11:19:02;14.27;;;10.23;;
15258;SDS011;34462;51.368;12.364;2022-11-20T11:21:32;14.33;;;10.23;;
15258;SDS011;34462;51.368;12.364;2022-11-20T11:24:01;13.23;;;9.80;;
15258;SDS011;34462;51.368;12.364;2022-11-20T11:26:55;12.73;;;9.73;;
15258;SDS011;34462;51.368;12.364;2022-11-20T11:29:25;13.10;;;9.27;;
15258;SDS011;34462;51.368;12.364;2022-11-20T11:32:03;15.00;;;9.93;;
15258;SDS011;34462;51.368;12.364;2022-11-20T11:34:34;13.60;;;8.47;;
15258;SDS011;34462;51.368;12.364;2022-11-20T11:37:03;15.03;;;9.60;;
15258;SDS011;34462;51.368;12.364;2022-11-20T11:39:38;12.50;;;8.97;;
15258;SDS011;34462;51.368;12.364;2022-11-20T11:42:10;11.57;;;8.43;;
15258;SDS011;34462;51.368;12.364;2022-11-20T11:44:46;13.20;;;8.63;;
15258;SDS011;34462;51.368;12.364;2022-11-20T11:47:33;10.30;;;7.80;;
15258;SDS011;34462;51.368;12.364;2022-11-20T11:50:17;10.17;;;7.10;;
15258;SDS011;34462;51.368;12.364;2022-11-20T11:52:54;10.17;;;7.23;;
15258;SDS011;34462;51.368;12.364;2022-11-20T11:55:35;11.43;;;8.20;;
15258;SDS011;34462;51.368;12.364;2022-11-20T11:58:11;12.13;;;8.87;;
15258;SDS011;34462;51.368;12.364;2022-11-20T12:00:54;13.27;;;8.70;;
15258;SDS011;34462;51.368;12.364;2022-11-20T12:03:29;13.13;;;9.40;;
15258;SDS011;34462;51.368;12.364;2022-11-20T12:06:08;12.63;;;8.80;;
15258;SDS011;34462;51.368;12.364;2022-11-20T12:08:43;14.03;;;9.60;;
15258;SDS011;34462;51.368;12.364;2022-11-20T12:11:30;13.23;;;8.67;;
15258;SDS011;34462;51.368;12.364;2022-11-20T12:14:08;13.07;;;8.63;;
15258;SDS011;34462;51.368;12.364;2022-11-20T12:16:43;14.07;;;9.33;;
15258;SDS011;34462;51.368;12.364;2022-11-20T12:19:12;13.53;;;9.60;;
15258;SDS011;34462;51.368;12.364;2022-11-20T12:21:49;15.80;;;10.37;;
15258;SDS011;34462;51.368;12.364;2022-11-20T12:27:44;13.43;;;9.53;;
15258;SDS011;34462;51.368;12.364;2022-11-20T12:30:48;13.33;;;9.60;;
15258;SDS011;34462;51.368;12.364;2022-11-20T12:33:42;12.67;;;8.73;;
15258;SDS011;34462;51.368;12.364;2022-11-20T12:36:32;15.13;;;9.87;;
15258;SDS011;34462;51.368;12.364;2022-11-20T12:39:23;12.30;;;9.10;;
15258;SDS011;34462;51.368;12.364;2022-11-20T12:42:09;11.10;;;8.57;;
15258;SDS011;34462;51.368;12.364;2022-11-20T12:45:25;11.87;;;8.30;;
15258;SDS011;34462;51.368;12.364;2022-11-20T12:48:23;10.27;;;8.10;;
15258;SDS011;34462;51.368;12.364;2022-11-20T12:51:18;11.03;;;8.37;;
15258;SDS011;34462;51.368;12.364;2022-11-20T12:57:16;12.23;;;8.80;;
15258;SDS011;34462;51.368;12.364;2022-11-20T13:00:00;12.63;;;8.50;;
15258;SDS011;34462;51.368;12.364;2022-11-20T13:02:40;12.53;;;8.90;;
15258;SDS011;34462;51.368;12.364;2022-11-20T13:05:37;12.83;;;8.93;;
15258;SDS011;34462;51.368;12.364;2022-11-20T13:08:23;11.83;;;8.40;;
15258;SDS011;34462;51.368;12.364;2022-11-20T13:10:58;12.13;;;8.67;;
15258;SDS011;34462;51.368;12.364;2022-11-20T13:13:40;12.03;;;8.97;;
15258;SDS011;34462;51.368;12.364;2022-11-20T13:16:22;13.97;;;9.13;;
15258;SDS011;34462;51.368;12.364;2022-11-20T13:19:01;13.60;;;9.40;;
15258;SDS011;34462;51.368;12.364;2022-11-20T13:21:35;14.10;;;9.10;;
15258;SDS011;34462;51.368;12.364;2022-11-20T13:24:06;11.67;;;9.10;;
15258;SDS011;34462;51.368;12.364;2022-11-20T13:27:00;12.07;;;8.40;;
15258;SDS011;34462;51.368;12.364;2022-11-20T13:29:47;12.83;;;9.10;;
15258;SDS011;34462;51.368;12.364;2022-11-20T13:32:47;13.23;;;9.07;;
15258;SDS011;34462;51.368;12.364;2022-11-20T13:35:28;13.13;;;8.63;;
15258;SDS011;34462;51.368;12.364;2022-11-20T13:38:00;12.90;;;8.30;;
15258;SDS011;34462;51.368;12.364;2022-11-20T13:40:35;65.80;;;48.50;;
15258;SDS011;34462;51.368;12.364;2022-11-20T13:43:18;12.83;;;9.00;;
15258;SDS011;34462;51.368;12.364;2022-11-20T13:45:54;12.50;;;8.57;;
15258;SDS011;34462;51.368;12.364;2022-11-20T13:48:26;13.33;;;8.43;;
15258;SDS011;34462;51.368;12.364;2022-11-20T13:51:02;12.57;;;8.67;;
15258;SDS011;34462;51.368;12.364;2022-11-20T13:53:48;11.97;;;8.07;;
15258;SDS011;34462;51.368;12.364;2022-11-20T13:56:45;11.10;;;7.63;;
15258;SDS011;34462;51.368;12.364;2022-11-20T13:59:31;11.93;;;8.17;;
15258;SDS011;34462;51.368;12.364;2022-11-20T14:02:17;11.27;;;8.17;;
15258;SDS011;34462;51.368;12.364;2022-11-20T14:04:51;12.77;;;8.27;;
15258;SDS011;34462;51.368;12.364;2022-11-20T14:07:25;11.17;;;7.37;;
15258;SDS011;34462;51.368;12.364;2022-11-20T14:10:04;10.57;;;7.23;;
15258;SDS011;34462;51.368;12.364;2022-11-20T14:12:45;10.47;;;7.43;;
15258;SDS011;34462;51.368;12.364;2022-11-20T14:15:24;10.83;;;7.57;;
15258;SDS011;34462;51.368;12.364;2022-11-20T14:17:56;10.60;;;7.70;;
15258;SDS011;34462;51.368;12.364;2022-11-20T14:20:26;12.03;;;8.07;;
15258;SDS011;34462;51.368;12.364;2022-11-20T14:22:57;10.03;;;7.40;;
15258;SDS011;34462;51.368;12.364;2022-11-20T14:25:25;9.67;;;7.10;;
15258;SDS011;34462;51.368;12.364;2022-11-20T14:27:54;10.10;;;7.40;;
15258;SDS011;34462;51.368;12.364;2022-11-20T14:30:27;10.23;;;7.03;;
15258;SDS011;34462;51.368;12.364;2022-11-20T14:33:05;10.57;;;7.13;;
15258;SDS011;34462;51.368;12.364;2022-11-20T14:35:34;10.97;;;7.50;;
15258;SDS011;34462;51.368;12.364;2022-11-20T14:38:08;10.90;;;7.57;;
15258;SDS011;34462;51.368;12.364;2022-11-20T14:40:41;12.40;;;8.57;;
15258;SDS011;34462;51.368;12.364;2022-11-20T14:43:19;11.17;;;7.83;;
15258;SDS011;34462;51.368;12.364;2022-11-20T14:46:02;10.63;;;7.60;;
15258;SDS011;34462;51.368;12.364;2022-11-20T14:48:35;11.30;;;8.10;;
15258;SDS011;34462;51.368;12.364;2022-11-20T14:51:10;11.10;;;7.63;;
15258;SDS011;34462;51.368;12.364;2022-11-20T14:53:50;11.63;;;7.90;;